sensor_id;sensor_type;location;lat;lon;timestamp;P1;durP1;ratioP1;P2;durP2;ratioP2
71562;SDS011;59391;52.504;13.438;2022-12-20T00:00:56;38.25;;;19.05;;
71562;SDS011;59391;52.504;13.438;2022-12-20T00:03:21;34.23;;;17.73;;
71562;SDS011;59391;52.504;13.438;2022-12-20T00:05:47;31.08;;;15.82;;
71562;SDS011;59391;52.504;13.438;2022-12-20T00:08:13;33.80;;;16.85;;
71562;SDS011;59391;52.504;13.438;2022-12-20T00:10:40;39.33;;;18.85;;
71562;SDS011;59391;52.504;13.438;2022-12-20T00:13:09;32.85;;;18.65;;
71562;SDS011;59391;52.504;13.438;2022-12-20T00:15:36;40.17;;;19.83;;
71562;SDS011;59391;52.504;13.438;2022-12-20T00:18:02;36.47;;;17.65;;
71562;SDS011;59391;52.504;13.438;2022-12-20T00:20:28;37.57;;;18.20;;
71562;SDS011;59391;52.504;13.438;2022-12-20T00:22:54;37.35;;;17.50;;
71562;SDS011;59391;52.504;13.438;2022-12-20T00:25:20;37.72;;;19.98;;
71562;SDS011;59391;52.504;13.438;2022-12-20T00:27:46;35.17;;;17.43;;
71562;SDS011;59391;52.504;13.438;2022-12-20T00:30:13;39.97;;;19.77;;
71562;SDS011;59391;52.504;13.438;2022-12-20T00:32:40;36.63;;;18.35;;
71562;SDS011;59391;52.504;13.438;2022-12-20T00:35:07;31.58;;;16.42;;
71562;SDS011;59391;52.504;13.438;2022-12-20T00:37:33;36.20;;;18.65;;
71562;SDS011;59391;52.504;13.438;2022-12-20T00:39:59;46.03;;;22.00;;
71562;SDS011;59391;52.504;13.438;2022-12-20T00:42:29;35.45;;;18.08;;
71562;SDS011;59391;52.504;13.438;2022-12-20T00:44:54;40.67;;;21.03;;
71562;SDS011;59391;52.504;13.438;2022-12-20T00:47:20;33.45;;;17.05;;
71562;SDS011;59391;52.504;13.438;2022-12-20T00:49:45;53.07;;;27.53;;
71562;SDS011;59391;52.504;13.438;2022-12-20T00:52:11;50.10;;;25.95;;
71562;SDS011;59391;52.504;13.438;2022-12-20T00:54:37;44.28;;;23.67;;
71562;SDS011;59391;52.504;13.438;2022-12-20T00:57:02;37.43;;;19.77;;
71562;SDS011;59391;52.504;13.438;2022-12-20T00:59:28;37.72;;;19.55;;
71562;SDS011;59391;52.504;13.438;2022-12-20T01:01:53;38.80;;;19.77;;
71562;SDS011;59391;52.504;13.438;2022-12-20T01:04:19;35.33;;;17.83;;
71562;SDS011;59391;52.504;13.438;2022-12-20T01:06:45;40.75;;;19.33;;
71562;SDS011;59391;52.504;13.438;2022-12-20T01:09:10;43.43;;;22.60;;
71562;SDS011;59391;52.504;13.438;2022-12-20T01:11:37;33.33;;;17.05;;
71562;SDS011;59391;52.504;13.438;2022-12-20T01:14:08;41.58;;;20.70;;
71562;SDS011;59391;52.504;13.438;2022-12-20T01:16:40;49.77;;;25.60;;
71562;SDS011;59391;52.504;13.438;2022-12-20T01:19:10;37.75;;;19.95;;
71562;SDS011;59391;52.504;13.438;2022-12-20T01:21:38;40.78;;;20.15;;
71562;SDS011;59391;52.504;13.438;2022-12-20T01:24:08;33.08;;;16.85;;
71562;SDS011;59391;52.504;13.438;2022-12-20T01:26:39;32.40;;;17.90;;
71562;SDS011;59391;52.504;13.438;2022-12-20T01:29:05;37.20;;;18.67;;
71562;SDS011;59391;52.504;13.438;2022-12-20T01:31:31;32.67;;;16.80;;
71562;SDS011;59391;52.504;13.438;2022-12-20T01:33:59;33.58;;;16.40;;
71562;SDS011;59391;52.504;13.438;2022-12-20T01:36:26;32.47;;;17.27;;
71562;SDS011;59391;52.504;13.438;2022-12-20T01:38:59;31.10;;;16.60;;
71562;SDS011;59391;52.504;13.438;2022-12-20T01:41:35;36.03;;;18.63;;
71562;SDS011;59391;52.504;13.438;2022-12-20T01:44:47;43.28;;;24.70;;
71562;SDS011;59391;52.504;13.438;2022-12-20T01:46:50;31.13;;;17.30;;
71562;SDS011;59391;52.504;13.438;2022-12-20T01:49:21;31.50;;;16.53;;
71562;SDS011;59391;52.504;13.438;2022-12-20T01:51:57;30.50;;;15.70;;
71562;SDS011;59391;52.504;13.438;2022-12-20T01:57:17;32.95;;;16.67;;
71562;SDS011;59391;52.504;13.438;2022-12-20T01:59:52;31.48;;;15.93;;
71562;SDS011;59391;52.504;13.438;2022-12-20T02:02:20;29.13;;;14.47;;
71562;SDS011;59391;52.504;13.438;2022-12-20T02:04:45;27.08;;;14.77;;
71562;SDS011;59391;52.504;13.438;2022-12-20T02:07:13;32.00;;;18.00;;
71562;SDS011;59391;52.504;13.438;2022-12-20T02:09:48;31.05;;;15.05;;
71562;SDS011;59391;52.504;13.438;2022-12-20T02:12:15;32.70;;;17.48;;
71562;SDS011;59391;52.504;13.438;2022-12-20T02:27:13;29.98;;;15.10;;
71562;SDS011;59391;52.504;13.438;2022-12-20T02:30:15;27.63;;;14.45;;
71562;SDS011;59391;52.504;13.438;2022-12-20T02:32:58;27.00;;;14.80;;
71562;SDS011;59391;52.504;13.438;2022-12-20T02:35:29;29.20;;;15.33;;
71562;SDS011;59391;52.504;13.438;2022-12-20T02:37:59;28.98;;;15.98;;
71562;SDS011;59391;52.504;13.438;2022-12-20T02:40:32;27.65;;;15.15;;
71562;SDS011;59391;52.504;13.438;2022-12-20T02:43:04;30.95;;;15.70;;
71562;SDS011;59391;52.504;13.438;2022-12-20T02:45:57;30.77;;;15.75;;
71562;SDS011;59391;52.504;13.438;2022-12-20T02:48:24;30.93;;;16.07;;
71562;SDS011;59391;52.504;13.438;2022-12-20T02:50:56;29.75;;;15.18;;
71562;SDS011;59391;52.504;13.438;2022-12-20T02:53:26;28.63;;;15.48;;
71562;SDS011;59391;52.504;13.438;2022-12-20T02:56:01;26.15;;;13.13;;
71562;SDS011;59391;52.504;13.438;2022-12-20T02:59:06;31.10;;;16.23;;
71562;SDS011;59391;52.504;13.438;2022-12-20T03:01:53;25.73;;;14.13;;
71562;SDS011;59391;52.504;13.438;2022-12-20T03:04:20;28.75;;;15.68;;
71562;SDS011;59391;52.504;13.438;2022-12-20T03:06:59;31.38;;;16.35;;
71562;SDS011;59391;52.504;13.438;2022-12-20T03:09:37;27.00;;;14.90;;
71562;SDS011;59391;52.504;13.438;2022-12-20T03:12:06;29.52;;;15.73;;
71562;SDS011;59391;52.504;13.438;2022-12-20T03:14:35;30.43;;;16.73;;
71562;SDS011;59391;52.504;13.438;2022-12-20T03:17:02;29.42;;;15.57;;
71562;SDS011;59391;52.504;13.438;2022-12-20T03:19:28;28.75;;;14.40;;
71562;SDS011;59391;52.504;13.438;2022-12-20T03:21:55;36.65;;;19.95;;
71562;SDS011;59391;52.504;13.438;2022-12-20T03:24:21;31.13;;;15.93;;
71562;SDS011;59391;52.504;13.438;2022-12-20T03:26:46;39.20;;;20.23;;
71562;SDS011;59391;52.504;13.438;2022-12-20T03:29:12;27.50;;;16.10;;
71562;SDS011;59391;52.504;13.438;2022-12-20T03:31:38;29.20;;;15.90;;
71562;SDS011;59391;52.504;13.438;2022-12-20T03:34:04;26.58;;;14.85;;
71562;SDS011;59391;52.504;13.438;2022-12-20T03:36:29;22.50;;;12.03;;
71562;SDS011;59391;52.504;13.438;2022-12-20T03:38:55;27.70;;;13.90;;
71562;SDS011;59391;52.504;13.438;2022-12-20T03:41:22;24.00;;;13.73;;
71562;SDS011;59391;52.504;13.438;2022-12-20T03:43:48;24.27;;;13.32;;
71562;SDS011;59391;52.504;13.438;2022-12-20T03:46:14;25.08;;;12.55;;
71562;SDS011;59391;52.504;13.438;2022-12-20T03:48:40;26.02;;;12.77;;
71562;SDS011;59391;52.504;13.438;2022-12-20T03:51:07;25.20;;;13.60;;
71562;SDS011;59391;52.504;13.438;2022-12-20T03:53:33;27.40;;;13.90;;
71562;SDS011;59391;52.504;13.438;2022-12-20T03:55:58;23.00;;;12.00;;
71562;SDS011;59391;52.504;13.438;2022-12-20T03:58:24;26.67;;;13.53;;
71562;SDS011;59391;52.504;13.438;2022-12-20T04:00:50;27.00;;;15.02;;
71562;SDS011;59391;52.504;13.438;2022-12-20T04:03:15;25.43;;;13.87;;
71562;SDS011;59391;52.504;13.438;2022-12-20T04:05:41;25.30;;;13.70;;
71562;SDS011;59391;52.504;13.438;2022-12-20T04:08:07;23.33;;;13.10;;
71562;SDS011;59391;52.504;13.438;2022-12-20T04:10:32;29.33;;;14.50;;
71562;SDS011;59391;52.504;13.438;2022-12-20T04:13:18;26.95;;;12.95;;
71562;SDS011;59391;52.504;13.438;2022-12-20T04:15:43;26.45;;;13.93;;
71562;SDS011;59391;52.504;13.438;2022-12-20T04:18:09;25.88;;;14.57;;
71562;SDS011;59391;52.504;13.438;2022-12-20T04:20:35;23.80;;;12.10;;
71562;SDS011;59391;52.504;13.438;2022-12-20T04:23:00;24.25;;;12.70;;
71562;SDS011;59391;52.504;13.438;2022-12-20T04:25:28;25.80;;;12.83;;
71562;SDS011;59391;52.504;13.438;2022-12-20T04:27:54;24.30;;;13.20;;
71562;SDS011;59391;52.504;13.438;2022-12-20T04:30:19;25.67;;;13.17;;
71562;SDS011;59391;52.504;13.438;2022-12-20T04:32:45;20.75;;;11.98;;
71562;SDS011;59391;52.504;13.438;2022-12-20T04:35:11;26.63;;;13.53;;
71562;SDS011;59391;52.504;13.438;2022-12-20T04:37:36;25.65;;;13.38;;
71562;SDS011;59391;52.504;13.438;2022-12-20T04:40:02;24.00;;;12.30;;
71562;SDS011;59391;52.504;13.438;2022-12-20T04:42:29;23.08;;;12.05;;
71562;SDS011;59391;52.504;13.438;2022-12-20T04:44:54;23.67;;;13.07;;
71562;SDS011;59391;52.504;13.438;2022-12-20T04:47:20;24.50;;;13.68;;
71562;SDS011;59391;52.504;13.438;2022-12-20T04:49:45;22.07;;;12.37;;
71562;SDS011;59391;52.504;13.438;2022-12-20T04:52:14;23.10;;;12.60;;
71562;SDS011;59391;52.504;13.438;2022-12-20T04:54:58;26.38;;;13.70;;
71562;SDS011;59391;52.504;13.438;2022-12-20T04:57:24;25.37;;;13.10;;
71562;SDS011;59391;52.504;13.438;2022-12-20T04:59:49;23.77;;;12.77;;
71562;SDS011;59391;52.504;13.438;2022-12-20T05:02:15;25.83;;;14.00;;
71562;SDS011;59391;52.504;13.438;2022-12-20T05:04:41;26.60;;;14.23;;
71562;SDS011;59391;52.504;13.438;2022-12-20T05:07:07;27.43;;;14.73;;
71562;SDS011;59391;52.504;13.438;2022-12-20T05:09:32;24.05;;;13.00;;
71562;SDS011;59391;52.504;13.438;2022-12-20T05:11:58;25.13;;;13.77;;
71562;SDS011;59391;52.504;13.438;2022-12-20T05:14:23;22.13;;;13.15;;
71562;SDS011;59391;52.504;13.438;2022-12-20T05:16:49;24.93;;;13.47;;
71562;SDS011;59391;52.504;13.438;2022-12-20T05:19:15;24.17;;;13.10;;
71562;SDS011;59391;52.504;13.438;2022-12-20T05:21:40;25.25;;;14.57;;
71562;SDS011;59391;52.504;13.438;2022-12-20T05:24:24;24.50;;;12.93;;
71562;SDS011;59391;52.504;13.438;2022-12-20T05:27:08;26.65;;;13.77;;
71562;SDS011;59391;52.504;13.438;2022-12-20T05:29:34;24.73;;;14.43;;
71562;SDS011;59391;52.504;13.438;2022-12-20T05:31:59;26.63;;;14.33;;
71562;SDS011;59391;52.504;13.438;2022-12-20T05:34:25;25.57;;;12.97;;
71562;SDS011;59391;52.504;13.438;2022-12-20T05:36:51;27.73;;;15.07;;
71562;SDS011;59391;52.504;13.438;2022-12-20T05:39:16;25.47;;;14.83;;
71562;SDS011;59391;52.504;13.438;2022-12-20T05:41:42;27.52;;;14.63;;
71562;SDS011;59391;52.504;13.438;2022-12-20T05:44:08;29.80;;;15.87;;
71562;SDS011;59391;52.504;13.438;2022-12-20T05:46:33;30.03;;;15.80;;
71562;SDS011;59391;52.504;13.438;2022-12-20T05:48:59;29.65;;;14.90;;
71562;SDS011;59391;52.504;13.438;2022-12-20T05:51:24;28.67;;;15.17;;
71562;SDS011;59391;52.504;13.438;2022-12-20T05:53:50;26.63;;;14.40;;
71562;SDS011;59391;52.504;13.438;2022-12-20T05:56:16;39.60;;;19.90;;
71562;SDS011;59391;52.504;13.438;2022-12-20T05:58:41;26.23;;;14.00;;
71562;SDS011;59391;52.504;13.438;2022-12-20T06:01:08;31.17;;;18.03;;
71562;SDS011;59391;52.504;13.438;2022-12-20T06:03:34;43.88;;;23.98;;
71562;SDS011;59391;52.504;13.438;2022-12-20T06:06:03;39.80;;;19.20;;
71562;SDS011;59391;52.504;13.438;2022-12-20T06:08:30;37.22;;;19.95;;
71562;SDS011;59391;52.504;13.438;2022-12-20T06:10:55;33.28;;;16.52;;
71562;SDS011;59391;52.504;13.438;2022-12-20T06:13:21;40.65;;;18.92;;
71562;SDS011;59391;52.504;13.438;2022-12-20T06:15:47;35.20;;;18.90;;
71562;SDS011;59391;52.504;13.438;2022-12-20T06:18:12;34.03;;;19.40;;
71562;SDS011;59391;52.504;13.438;2022-12-20T06:20:38;35.63;;;18.47;;
71562;SDS011;59391;52.504;13.438;2022-12-20T06:23:04;35.83;;;18.20;;
71562;SDS011;59391;52.504;13.438;2022-12-20T06:25:31;41.03;;;19.77;;
71562;SDS011;59391;52.504;13.438;2022-12-20T06:27:56;26.83;;;14.63;;
71562;SDS011;59391;52.504;13.438;2022-12-20T06:30:22;30.83;;;15.98;;
71562;SDS011;59391;52.504;13.438;2022-12-20T06:32:48;23.90;;;13.97;;
71562;SDS011;59391;52.504;13.438;2022-12-20T06:35:16;31.85;;;15.82;;
71562;SDS011;59391;52.504;13.438;2022-12-20T06:37:41;34.63;;;16.97;;
71562;SDS011;59391;52.504;13.438;2022-12-20T06:40:08;29.02;;;14.75;;
71562;SDS011;59391;52.504;13.438;2022-12-20T06:42:35;33.78;;;16.13;;
71562;SDS011;59391;52.504;13.438;2022-12-20T06:45:02;23.97;;;13.80;;
71562;SDS011;59391;52.504;13.438;2022-12-20T06:47:28;31.30;;;17.13;;
71562;SDS011;59391;52.504;13.438;2022-12-20T06:49:54;27.85;;;15.07;;
71562;SDS011;59391;52.504;13.438;2022-12-20T06:52:20;45.90;;;23.07;;
71562;SDS011;59391;52.504;13.438;2022-12-20T06:54:46;36.03;;;19.23;;
71562;SDS011;59391;52.504;13.438;2022-12-20T06:57:11;26.13;;;13.97;;
71562;SDS011;59391;52.504;13.438;2022-12-20T06:59:37;40.58;;;22.58;;
71562;SDS011;59391;52.504;13.438;2022-12-20T07:02:03;32.47;;;16.00;;
71562;SDS011;59391;52.504;13.438;2022-12-20T07:04:29;28.70;;;15.30;;
71562;SDS011;59391;52.504;13.438;2022-12-20T07:06:54;28.23;;;16.37;;
71562;SDS011;59391;52.504;13.438;2022-12-20T07:09:21;31.73;;;16.67;;
71562;SDS011;59391;52.504;13.438;2022-12-20T07:11:47;35.17;;;19.70;;
71562;SDS011;59391;52.504;13.438;2022-12-20T07:14:13;37.90;;;21.70;;
71562;SDS011;59391;52.504;13.438;2022-12-20T07:16:39;34.80;;;18.42;;
71562;SDS011;59391;52.504;13.438;2022-12-20T07:19:11;40.37;;;23.00;;
71562;SDS011;59391;52.504;13.438;2022-12-20T07:21:38;32.95;;;16.50;;
71562;SDS011;59391;52.504;13.438;2022-12-20T07:24:04;50.58;;;24.40;;
71562;SDS011;59391;52.504;13.438;2022-12-20T07:26:30;28.92;;;16.38;;
71562;SDS011;59391;52.504;13.438;2022-12-20T07:28:56;43.23;;;22.13;;
71562;SDS011;59391;52.504;13.438;2022-12-20T07:31:30;38.15;;;18.73;;
71562;SDS011;59391;52.504;13.438;2022-12-20T07:33:56;34.88;;;18.48;;
71562;SDS011;59391;52.504;13.438;2022-12-20T07:36:21;52.20;;;24.27;;
71562;SDS011;59391;52.504;13.438;2022-12-20T07:38:47;48.95;;;22.30;;
71562;SDS011;59391;52.504;13.438;2022-12-20T07:41:21;31.67;;;15.10;;
71562;SDS011;59391;52.504;13.438;2022-12-20T07:43:50;43.40;;;20.90;;
71562;SDS011;59391;52.504;13.438;2022-12-20T07:46:26;58.20;;;25.27;;
71562;SDS011;59391;52.504;13.438;2022-12-20T07:49:03;48.45;;;21.95;;
71562;SDS011;59391;52.504;13.438;2022-12-20T07:51:39;59.97;;;26.80;;
71562;SDS011;59391;52.504;13.438;2022-12-20T07:57:10;65.82;;;26.10;;
71562;SDS011;59391;52.504;13.438;2022-12-20T07:59:50;77.43;;;29.65;;
71562;SDS011;59391;52.504;13.438;2022-12-20T08:02:40;72.43;;;29.75;;
71562;SDS011;59391;52.504;13.438;2022-12-20T08:05:17;38.05;;;19.13;;
71562;SDS011;59391;52.504;13.438;2022-12-20T08:07:43;90.60;;;34.53;;
71562;SDS011;59391;52.504;13.438;2022-12-20T08:10:11;74.25;;;30.85;;
71562;SDS011;59391;52.504;13.438;2022-12-20T08:12:39;106.10;;;37.28;;
71562;SDS011;59391;52.504;13.438;2022-12-20T08:15:07;66.70;;;29.98;;
71562;SDS011;59391;52.504;13.438;2022-12-20T08:17:33;146.17;;;43.03;;
71562;SDS011;59391;52.504;13.438;2022-12-20T08:19:59;43.20;;;20.83;;
71562;SDS011;59391;52.504;13.438;2022-12-20T08:22:25;38.47;;;21.03;;
71562;SDS011;59391;52.504;13.438;2022-12-20T08:24:51;37.05;;;18.05;;
71562;SDS011;59391;52.504;13.438;2022-12-20T08:27:16;32.17;;;16.53;;
71562;SDS011;59391;52.504;13.438;2022-12-20T08:29:42;44.03;;;20.90;;
71562;SDS011;59391;52.504;13.438;2022-12-20T08:32:07;43.97;;;22.97;;
71562;SDS011;59391;52.504;13.438;2022-12-20T08:34:34;38.88;;;18.38;;
71562;SDS011;59391;52.504;13.438;2022-12-20T08:37:00;58.27;;;29.97;;
71562;SDS011;59391;52.504;13.438;2022-12-20T08:39:26;66.05;;;31.05;;
71562;SDS011;59391;52.504;13.438;2022-12-20T08:41:51;47.07;;;24.50;;
71562;SDS011;59391;52.504;13.438;2022-12-20T08:44:17;63.70;;;32.38;;
71562;SDS011;59391;52.504;13.438;2022-12-20T08:46:42;48.13;;;22.10;;
71562;SDS011;59391;52.504;13.438;2022-12-20T08:49:08;64.77;;;27.23;;
71562;SDS011;59391;52.504;13.438;2022-12-20T08:51:34;57.83;;;27.00;;
71562;SDS011;59391;52.504;13.438;2022-12-20T08:53:59;49.73;;;25.03;;
71562;SDS011;59391;52.504;13.438;2022-12-20T08:56:26;68.30;;;30.50;;
71562;SDS011;59391;52.504;13.438;2022-12-20T08:58:52;65.13;;;29.02;;
71562;SDS011;59391;52.504;13.438;2022-12-20T09:01:18;43.43;;;22.03;;
71562;SDS011;59391;52.504;13.438;2022-12-20T09:03:46;54.15;;;25.77;;
71562;SDS011;59391;52.504;13.438;2022-12-20T09:06:17;44.53;;;22.83;;
71562;SDS011;59391;52.504;13.438;2022-12-20T09:08:46;46.53;;;21.37;;
71562;SDS011;59391;52.504;13.438;2022-12-20T09:11:17;45.10;;;21.45;;
71562;SDS011;59391;52.504;13.438;2022-12-20T09:13:46;44.45;;;20.25;;
71562;SDS011;59391;52.504;13.438;2022-12-20T09:16:15;44.53;;;21.88;;
71562;SDS011;59391;52.504;13.438;2022-12-20T09:18:47;40.15;;;20.60;;
71562;SDS011;59391;52.504;13.438;2022-12-20T09:21:19;45.23;;;21.87;;
71562;SDS011;59391;52.504;13.438;2022-12-20T09:23:45;40.22;;;20.67;;
71562;SDS011;59391;52.504;13.438;2022-12-20T09:26:15;40.40;;;19.50;;
71562;SDS011;59391;52.504;13.438;2022-12-20T09:28:42;38.20;;;19.45;;
71562;SDS011;59391;52.504;13.438;2022-12-20T09:31:19;41.90;;;20.75;;
71562;SDS011;59391;52.504;13.438;2022-12-20T09:33:48;39.90;;;20.60;;
71562;SDS011;59391;52.504;13.438;2022-12-20T09:36:18;35.13;;;18.02;;
71562;SDS011;59391;52.504;13.438;2022-12-20T09:38:45;36.78;;;17.95;;
71562;SDS011;59391;52.504;13.438;2022-12-20T09:44:13;44.60;;;20.60;;
71562;SDS011;59391;52.504;13.438;2022-12-20T09:46:51;39.70;;;18.80;;
71562;SDS011;59391;52.504;13.438;2022-12-20T09:49:39;38.60;;;18.95;;
71562;SDS011;59391;52.504;13.438;2022-12-20T09:52:15;40.95;;;20.27;;
71562;SDS011;59391;52.504;13.438;2022-12-20T10:00:14;31.60;;;17.77;;
71562;SDS011;59391;52.504;13.438;2022-12-20T10:02:43;32.67;;;17.23;;
71562;SDS011;59391;52.504;13.438;2022-12-20T10:05:17;29.55;;;15.43;;
71562;SDS011;59391;52.504;13.438;2022-12-20T10:19:49;25.30;;;13.00;;
71562;SDS011;59391;52.504;13.438;2022-12-20T10:22:36;24.38;;;12.70;;
71562;SDS011;59391;52.504;13.438;2022-12-20T10:27:43;23.45;;;12.80;;
71562;SDS011;59391;52.504;13.438;2022-12-20T10:30:15;24.55;;;13.63;;
71562;SDS011;59391;52.504;13.438;2022-12-20T10:32:46;24.25;;;12.02;;
71562;SDS011;59391;52.504;13.438;2022-12-20T10:37:58;26.37;;;14.23;;
71562;SDS011;59391;52.504;13.438;2022-12-20T10:40:30;28.45;;;14.57;;
71562;SDS011;59391;52.504;13.438;2022-12-20T10:42:58;34.13;;;14.95;;
71562;SDS011;59391;52.504;13.438;2022-12-20T10:46:11;25.45;;;14.50;;
71562;SDS011;59391;52.504;13.438;2022-12-20T10:48:32;27.52;;;15.18;;
71562;SDS011;59391;52.504;13.438;2022-12-20T10:53:36;36.95;;;17.98;;
71562;SDS011;59391;52.504;13.438;2022-12-20T10:56:24;27.00;;;13.63;;
71562;SDS011;59391;52.504;13.438;2022-12-20T10:58:53;28.85;;;14.32;;
71562;SDS011;59391;52.504;13.438;2022-12-20T11:01:39;23.35;;;11.50;;
71562;SDS011;59391;52.504;13.438;2022-12-20T11:06:56;33.42;;;18.40;;
71562;SDS011;59391;52.504;13.438;2022-12-20T11:09:34;24.40;;;11.85;;
71562;SDS011;59391;52.504;13.438;2022-12-20T11:14:39;27.77;;;14.00;;
71562;SDS011;59391;52.504;13.438;2022-12-20T11:23:29;26.52;;;13.80;;
71562;SDS011;59391;52.504;13.438;2022-12-20T11:32:36;32.03;;;16.07;;
71562;SDS011;59391;52.504;13.438;2022-12-20T11:35:25;29.10;;;15.07;;
71562;SDS011;59391;52.504;13.438;2022-12-20T11:38:40;32.95;;;16.75;;
71562;SDS011;59391;52.504;13.438;2022-12-20T11:44:31;31.23;;;15.90;;
71562;SDS011;59391;52.504;13.438;2022-12-20T11:47:25;32.23;;;15.50;;
71562;SDS011;59391;52.504;13.438;2022-12-20T11:55:59;25.48;;;13.30;;
71562;SDS011;59391;52.504;13.438;2022-12-20T11:58:40;33.22;;;16.23;;
71562;SDS011;59391;52.504;13.438;2022-12-20T12:01:18;26.50;;;13.53;;
71562;SDS011;59391;52.504;13.438;2022-12-20T12:04:10;28.60;;;15.30;;
71562;SDS011;59391;52.504;13.438;2022-12-20T12:07:13;29.75;;;16.17;;
71562;SDS011;59391;52.504;13.438;2022-12-20T12:09:55;29.23;;;15.57;;
71562;SDS011;59391;52.504;13.438;2022-12-20T12:18:17;34.50;;;16.23;;
71562;SDS011;59391;52.504;13.438;2022-12-20T12:26:00;19.48;;;10.75;;
71562;SDS011;59391;52.504;13.438;2022-12-20T12:28:35;23.10;;;12.77;;
71562;SDS011;59391;52.504;13.438;2022-12-20T12:31:06;32.40;;;16.50;;
71562;SDS011;59391;52.504;13.438;2022-12-20T12:33:42;28.23;;;15.15;;
71562;SDS011;59391;52.504;13.438;2022-12-20T12:36:29;28.33;;;14.23;;
71562;SDS011;59391;52.504;13.438;2022-12-20T12:42:09;26.80;;;14.10;;
71562;SDS011;59391;52.504;13.438;2022-12-20T12:47:22;26.02;;;13.63;;
71562;SDS011;59391;52.504;13.438;2022-12-20T12:49:58;25.10;;;13.07;;
71562;SDS011;59391;52.504;13.438;2022-12-20T12:52:28;25.63;;;12.88;;
71562;SDS011;59391;52.504;13.438;2022-12-20T12:58:12;23.88;;;13.30;;
71562;SDS011;59391;52.504;13.438;2022-12-20T13:00:56;24.10;;;13.82;;
71562;SDS011;59391;52.504;13.438;2022-12-20T13:03:45;25.25;;;13.82;;
71562;SDS011;59391;52.504;13.438;2022-12-20T13:16:41;22.17;;;12.63;;
71562;SDS011;59391;52.504;13.438;2022-12-20T13:27:26;22.60;;;11.32;;
71562;SDS011;59391;52.504;13.438;2022-12-20T13:37:51;22.58;;;12.18;;
71562;SDS011;59391;52.504;13.438;2022-12-20T13:40:24;19.10;;;10.82;;
71562;SDS011;59391;52.504;13.438;2022-12-20T13:43:23;21.48;;;12.63;;
71562;SDS011;59391;52.504;13.438;2022-12-20T13:49:00;21.37;;;11.43;;
71562;SDS011;59391;52.504;13.438;2022-12-20T13:51:27;21.10;;;12.13;;
71562;SDS011;59391;52.504;13.438;2022-12-20T13:54:02;25.60;;;12.77;;
71562;SDS011;59391;52.504;13.438;2022-12-20T13:56:33;32.17;;;15.18;;
71562;SDS011;59391;52.504;13.438;2022-12-20T13:59:11;25.23;;;13.48;;
71562;SDS011;59391;52.504;13.438;2022-12-20T14:02:01;24.40;;;12.17;;
71562;SDS011;59391;52.504;13.438;2022-12-20T14:04:42;25.38;;;12.82;;
71562;SDS011;59391;52.504;13.438;2022-12-20T14:07:16;21.52;;;10.77;;
71562;SDS011;59391;52.504;13.438;2022-12-20T14:09:46;26.48;;;13.23;;
71562;SDS011;59391;52.504;13.438;2022-12-20T14:12:23;24.40;;;13.25;;
71562;SDS011;59391;52.504;13.438;2022-12-20T14:14:50;27.50;;;12.83;;
71562;SDS011;59391;52.504;13.438;2022-12-20T14:17:23;24.58;;;13.68;;
71562;SDS011;59391;52.504;13.438;2022-12-20T14:22:44;24.17;;;12.02;;
71562;SDS011;59391;52.504;13.438;2022-12-20T14:25:34;25.65;;;13.82;;
71562;SDS011;59391;52.504;13.438;2022-12-20T14:28:16;25.50;;;12.43;;
71562;SDS011;59391;52.504;13.438;2022-12-20T14:31:00;26.50;;;13.13;;
71562;SDS011;59391;52.504;13.438;2022-12-20T14:33:35;27.05;;;14.45;;
71562;SDS011;59391;52.504;13.438;2022-12-20T14:36:08;22.77;;;12.70;;
71562;SDS011;59391;52.504;13.438;2022-12-20T14:38:43;25.83;;;13.13;;
71562;SDS011;59391;52.504;13.438;2022-12-20T14:41:27;21.93;;;12.20;;
71562;SDS011;59391;52.504;13.438;2022-12-20T14:44:23;23.27;;;12.85;;
71562;SDS011;59391;52.504;13.438;2022-12-20T14:46:49;25.70;;;13.20;;
71562;SDS011;59391;52.504;13.438;2022-12-20T14:51:51;23.40;;;12.27;;
71562;SDS011;59391;52.504;13.438;2022-12-20T14:54:33;22.83;;;11.60;;
71562;SDS011;59391;52.504;13.438;2022-12-20T14:57:00;35.78;;;17.48;;
71562;SDS011;59391;52.504;13.438;2022-12-20T14:59:26;30.25;;;16.55;;
71562;SDS011;59391;52.504;13.438;2022-12-20T15:01:55;31.87;;;18.07;;
71562;SDS011;59391;52.504;13.438;2022-12-20T15:05:07;36.85;;;21.45;;
71562;SDS011;59391;52.504;13.438;2022-12-20T15:08:08;24.13;;;13.18;;
71562;SDS011;59391;52.504;13.438;2022-12-20T15:10:54;31.98;;;15.65;;
71562;SDS011;59391;52.504;13.438;2022-12-20T15:13:45;31.15;;;15.80;;
71562;SDS011;59391;52.504;13.438;2022-12-20T15:18:44;38.95;;;19.70;;
71562;SDS011;59391;52.504;13.438;2022-12-20T15:21:12;36.33;;;17.08;;
71562;SDS011;59391;52.504;13.438;2022-12-20T15:23:53;33.70;;;17.15;;
71562;SDS011;59391;52.504;13.438;2022-12-20T15:26:22;36.28;;;16.50;;
71562;SDS011;59391;52.504;13.438;2022-12-20T15:28:54;35.13;;;17.67;;
71562;SDS011;59391;52.504;13.438;2022-12-20T15:31:20;29.20;;;14.23;;
71562;SDS011;59391;52.504;13.438;2022-12-20T15:33:48;36.38;;;18.40;;
71562;SDS011;59391;52.504;13.438;2022-12-20T15:36:22;31.73;;;15.10;;
71562;SDS011;59391;52.504;13.438;2022-12-20T15:38:52;34.50;;;16.73;;
71562;SDS011;59391;52.504;13.438;2022-12-20T15:41:22;28.03;;;13.23;;
71562;SDS011;59391;52.504;13.438;2022-12-20T15:44:09;29.02;;;13.73;;
71562;SDS011;59391;52.504;13.438;2022-12-20T15:46:42;32.85;;;15.88;;
71562;SDS011;59391;52.504;13.438;2022-12-20T15:49:14;44.20;;;21.70;;
71562;SDS011;59391;52.504;13.438;2022-12-20T15:51:47;31.02;;;15.55;;
71562;SDS011;59391;52.504;13.438;2022-12-20T15:54:31;30.53;;;15.30;;
71562;SDS011;59391;52.504;13.438;2022-12-20T15:57:02;43.65;;;18.90;;
71562;SDS011;59391;52.504;13.438;2022-12-20T15:59:33;32.35;;;16.88;;
71562;SDS011;59391;52.504;13.438;2022-12-20T16:01:59;34.65;;;16.95;;
71562;SDS011;59391;52.504;13.438;2022-12-20T16:04:40;30.10;;;15.50;;
71562;SDS011;59391;52.504;13.438;2022-12-20T16:07:08;37.37;;;17.37;;
71562;SDS011;59391;52.504;13.438;2022-12-20T16:09:41;34.28;;;15.60;;
71562;SDS011;59391;52.504;13.438;2022-12-20T16:12:13;47.58;;;20.90;;
71562;SDS011;59391;52.504;13.438;2022-12-20T16:14:45;34.88;;;17.25;;
71562;SDS011;59391;52.504;13.438;2022-12-20T16:17:13;35.03;;;17.47;;
71562;SDS011;59391;52.504;13.438;2022-12-20T16:19:40;38.60;;;17.80;;
71562;SDS011;59391;52.504;13.438;2022-12-20T16:22:14;35.25;;;18.13;;
71562;SDS011;59391;52.504;13.438;2022-12-20T16:24:50;39.23;;;20.20;;
71562;SDS011;59391;52.504;13.438;2022-12-20T16:27:18;38.17;;;19.73;;
71562;SDS011;59391;52.504;13.438;2022-12-20T16:29:47;50.60;;;25.75;;
71562;SDS011;59391;52.504;13.438;2022-12-20T16:32:27;36.63;;;18.17;;
71562;SDS011;59391;52.504;13.438;2022-12-20T16:34:55;58.67;;;28.40;;
71562;SDS011;59391;52.504;13.438;2022-12-20T16:37:23;48.77;;;24.23;;
71562;SDS011;59391;52.504;13.438;2022-12-20T16:39:55;43.55;;;21.58;;
71562;SDS011;59391;52.504;13.438;2022-12-20T16:42:21;45.33;;;21.67;;